Flight Track Log - Related Links

Times and Time Zones

All times are in EDT time to prevent confusion due to time zone crossing. See the DAL1214 flight status page for this flight to view local times or setup timezone preferences in your user account.

Time Position Orientation Groundspeed Altitude Reporting Facility
EDT Latitude Longitude Course Direction KTS MPH feet Rate Location/Type
Fri 04:09:09 PM 42.1972 -83.3608 275° West 165 190 1,500  Level Cleveland Center
Fri 04:10:34 PM 42.1472 -83.4539 234° Southwest 261 300 4,000 2,255 Climbing Cleveland Center
Fri 04:11:30 PM 42.1222 -83.5283 246° West 287 330 6,800 2,656 Climbing Cleveland Center
Fri 04:12:00 PM 42.3549 -83.9440 292° West  Level FlightAware Approximate
Fri 04:12:36 PM 42.1614 -83.6308 297° West 297 342 9,400  Level Cleveland Center
Fri 04:13:00 PM 42.3988 -84.0904 292° West  Level FlightAware Approximate
Fri 04:13:36 PM 42.2086 -83.7342 302° West 312 359 10,100  Level Cleveland Center
Fri 04:14:00 PM 42.4207 -84.2436 275° West  Level FlightAware Approximate
Fri 04:14:36 PM 42.2656 -83.8550 303° West 329 379 12,200  Level Cleveland Center
Fri 04:15:36 PM 42.3206 -83.9758 302° West 354 407 13,800 1,800 Climbing Cleveland Center
Fri 04:16:36 PM 42.3833 -84.1056 303° West 388 447 15,800 1,950 Climbing Cleveland Center
Fri 04:17:36 PM 42.4286 -84.2544 292° West 406 467 17,700 1,781 Climbing Cleveland Center
Fri 04:19:11 PM 42.4347 -84.4933 272° West 444 511 20,400 1,682 Climbing Chicago Center
Fri 04:20:13 PM 42.4394 -84.6650 272° West 454 522 22,100 1,839 Climbing Chicago Center
Fri 04:21:15 PM 42.4436 -84.8733 272° West 461 531 24,200 1,887 Climbing Chicago Center
Fri 04:22:17 PM 42.4478 -85.0472 272° West 463 533 26,000 1,645 Climbing Chicago Center
Fri 04:23:19 PM 42.4511 -85.2214 272° West 462 532 27,600 1,452 Climbing Chicago Center
Fri 04:24:21 PM 42.4536 -85.3919 271° West 456 525 29,000 1,210 Climbing Chicago Center
Fri 04:25:23 PM 42.4572 -85.5636 272° West 456 525 30,100 1,210 Climbing Chicago Center
Fri 04:26:25 PM 42.4589 -85.7319 271° West 449 517 31,500 919 Climbing Chicago Center
Fri 04:27:27 PM 42.4608 -85.8997 271° West 444 511 32,000 242 Climbing Chicago Center
Fri 04:28:29 PM 42.4608 -86.1017 270° West 446 513 32,000  Level Chicago Center
Fri 04:29:31 PM 42.4117 -86.2519 246° West 439 505 32,000  Level Chicago Center
Fri 04:30:34 PM 42.3597 -86.3972 244° Southwest 431 496 32,000  Level Chicago Center
Fri 04:31:36 PM 42.3081 -86.5447 245° Southwest 434 499 32,000  Level Chicago Center
Fri 04:32:38 PM 42.2567 -86.6889 244° Southwest 430 495 32,000  Level Chicago Center
Fri 04:33:40 PM 42.1956 -86.8636 245° Southwest 430 495 32,000  Level Chicago Center
Fri 04:34:42 PM 42.1436 -87.0075 244° Southwest 430 495 32,000  Level Chicago Center
Fri 04:35:44 PM 42.0889 -87.1508 243° Southwest 430 495 32,000  Level Chicago Center
Fri 04:36:46 PM 42.0378 -87.2950 245° Southwest 430 495 32,000  Level Chicago Center
Fri 04:37:48 PM 41.9839 -87.4375 243° Southwest 429 494 32,000  Level Chicago Center
Fri 04:38:50 PM 41.9308 -87.5800 243° Southwest 428 493 32,000  Level Chicago Center
Fri 04:39:52 PM 41.8664 -87.7525 243° Southwest 433 498 32,000  Level Chicago Center
Fri 04:40:55 PM 41.8122 -87.8958 243° Southwest 433 498 32,000  Level Chicago Center
Fri 04:41:57 PM 41.7589 -88.0372 243° Southwest 432 497 32,000  Level Chicago Center
Fri 04:42:59 PM 41.7039 -88.1783 242° Southwest 433 498 32,000  Level Chicago Center
Fri 04:44:01 PM 41.6411 -88.3497 244° Southwest 434 499 32,000  Level Chicago Center
Fri 04:45:03 PM 41.5881 -88.4906 243° Southwest 433 498 32,000  Level Chicago Center
Fri 04:46:05 PM 41.5336 -88.6306 243° Southwest 432 497 32,000  Level Chicago Center
Fri 04:47:07 PM 41.4794 -88.7731 243° Southwest 434 499 32,000  Level Chicago Center
Fri 04:48:09 PM 41.4131 -88.9425 242° Southwest 434 499 32,000  Level Chicago Center
Fri 04:49:11 PM 41.3572 -89.0839 242° Southwest 436 502 32,000  Level Chicago Center
Fri 04:50:13 PM 41.3064 -89.2172 243° Southwest 434 499 32,000  Level Chicago Center
Fri 04:51:16 PM 41.2514 -89.3558 242° Southwest 428 493 32,000  Level Chicago Center
Fri 04:52:18 PM 41.1856 -89.5222 242° Southwest 425 489 32,000  Level Chicago Center
Fri 04:53:20 PM 41.1344 -89.6617 244° Southwest 424 488 32,000  Level Chicago Center
Fri 04:54:22 PM 41.0883 -89.8058 247° West 427 491 32,000  Level Chicago Center
Fri 04:55:24 PM 41.0422 -89.9511 247° West 432 497 32,000  Level Chicago Center
Fri 04:56:26 PM 40.9911 -90.1083 247° West 439 505 32,000  Level Chicago Center
Fri 04:57:28 PM 40.9361 -90.2753 246° West 439 505 32,000  Level Chicago Center
Fri 04:58:30 PM 40.8886 -90.4225 247° West 440 506 32,000  Level Chicago Center
Fri 04:59:32 PM 40.8406 -90.5692 247° West 436 502 32,000  Level Chicago Center
Fri 05:00:34 PM 40.7892 -90.7167 245° Southwest 444 511 32,000  Level Chicago Center
Fri 05:01:37 PM 40.7408 -90.8642 247° West 440 506 32,000  Level Chicago Center
Fri 05:02:39 PM 40.6814 -91.0408 246° West 441 507 32,000  Level Chicago Center
Fri 05:03:41 PM 40.6308 -91.1886 246° West 443 510 32,000  Level Chicago Center
Fri 05:04:43 PM 40.5847 -91.3194 245° Southwest 447 514 32,000  Level Chicago Center
Fri 05:05:45 PM 40.5228 -91.4978 245° Southwest 449 517 32,000  Level Chicago Center
Fri 05:06:47 PM 40.4728 -91.6472 246° West 449 517 32,000  Level Chicago Center
Fri 05:07:15 PM 40.4514 -91.7058 244° Southwest 449 517 32,000  Level Kansas City Center
Fri 05:08:17 PM 40.4003 -91.8536 246° West 447 514 32,000  Level Kansas City Center
Fri 05:09:19 PM 40.3367 -92.0289 245° Southwest 446 513 32,000  Level Kansas City Center
Fri 05:10:22 PM 40.2839 -92.1767 245° Southwest 447 514 32,000  Level Kansas City Center
Fri 05:11:24 PM 40.2314 -92.3244 245° Southwest 447 514 32,000  Level Kansas City Center
Fri 05:12:26 PM 40.1742 -92.4817 245° Southwest 448 516 32,000  Level Kansas City Center
Fri 05:13:28 PM 40.1242 -92.6236 245° Southwest 449 517 32,000  Level Kansas City Center
Fri 05:14:30 PM 40.0611 -92.7850 243° Southwest 448 516 32,000 -387 Level Kansas City Center
Fri 05:15:32 PM 40.0103 -92.9139 243° Southwest 446 513 31,200 -1,210 Descending Kansas City Center
Fri 05:16:34 PM 39.9422 -93.0889 243° Southwest 452 520 29,500 -1,500 Descending Kansas City Center
Fri 05:17:36 PM 39.8844 -93.2369 243° Southwest 458 527 28,100 -1,984 Descending Kansas City Center
Fri 05:18:38 PM 39.8267 -93.3831 243° Southwest 458 527 25,400 -2,468 Descending Kansas City Center
Fri 05:19:40 PM 39.7706 -93.5214 242° Southwest 445 512 23,000 -2,177 Descending Kansas City Center
Fri 05:20:42 PM 39.7203 -93.6564 244° Southwest 422 486 20,900 -2,323 Descending Kansas City Center
Fri 05:21:44 PM 39.6656 -93.7939 243° Southwest 388 447 18,200 -2,323 Descending Kansas City Center
Fri 05:22:46 PM 39.6164 -93.9086 241° Southwest 379 436 16,100 -2,516 Descending Kansas City Center
Fri 05:23:48 PM 39.5528 -94.0328 236° Southwest 371 427 13,000 -1,984 Descending Kansas City Center
Fri 05:24:50 PM 39.4997 -94.1397 237° Southwest 367 422 12,000 -484 Descending Kansas City Center
Fri 05:25:52 PM 39.4378 -94.2594 236° Southwest 360 414 12,000  Level Kansas City Center
Fri 05:26:54 PM 39.3906 -94.3511 236° Southwest 315 362 12,000 -387 Level Kansas City Center
Fri 05:27:56 PM 39.3458 -94.4400 237° Southwest 263 303 11,200 -1,161 Descending Kansas City Center
Fri 05:28:58 PM 39.3081 -94.5147 237° Southwest 258 297 9,600 -1,597 Descending Kansas City Center
Fri 05:30:00 PM 39.2636 -94.5978 235° Southwest 253 291 7,900 -1,403 Descending Kansas City Center
Fri 05:31:02 PM 39.1986 -94.6256 198° South 258 297 6,700 -1,161 Descending Kansas City Center
Fri 05:32:04 PM 39.1217 -94.6511 194° South 255 293 5,500 -823 Descending Kansas City Center
Fri 05:33:06 PM 39.0978 -94.7094 242° Southwest 202 232 5,000 -581 Descending Kansas City Center
Fri 05:34:08 PM 39.1278 -94.7425 319° Northwest 171 197 4,300 -677 Descending Kansas City Center

Login

Don't have an account? Register now (free) for customized features, flight alerts, and more!